^^
Station Historical Data
Daily Summary for January 23, 2018 Units:  Both    English   Metric
« Previous Day
Next Day »
Daily Weekly Monthly Yearly Custom
  High: Low: Average:
Temperature: TemperatureC °F /  -17.8 °C -11.7 °F /  -24.3 °C -8.3 °F /  -22.4 °C
Dew Point: DewpointC °F /  -17.8 °C -13.1 °F /  -25.1 °C -9.5 °F /  -23.1 °C
Humidity: Humidity% 87% 90%
Wind Speed: WindSpeedKMHmph /  0km/h - 0.1mph /  0.2km/h
Wind Gust: WindSpeedGustKMHmph /  0km/h - -
Wind- - ESE
Pressure: PressurehPa in /  0 hPa 1014.8 in /  34361.1 hPa -
Precipitation: 1.0 in /  25.4 mm    
Historical Graphs
 
 
Tabular Data for January 23, 2018
Time Temperature Dew Point Pressure Wind Wind Speed Wind Gust Humidity Rainfall Rate (Hourly) solar Conditions
TemperatureC °F /  -17.8 °C DewpointC °F /  -17.8 °C PressurehPain /  0hPa Calm     Humidity% HourlyPrecipMMin /  0mm SoftwareType W/m2 Conditions
00:00 -10.1 °F /  -23.4 °C -11.2 °F /  -24 °C 1014.8in /  34361.1hPa Calm     91% 0.0in /  0mm WeatherDisplay:10.37 W/m2 RA
00:05 -10.1 °F /  -23.4 °C -11.2 °F /  -24 °C 1015.1in /  34371.3hPa Calm     91% 0.0in /  0mm WeatherDisplay:10.37 W/m2 RA
00:10 -10.0 °F /  -23.3 °C -11.2 °F /  -24 °C 1015.1in /  34371.3hPa Calm     91% 0.0in /  0mm WeatherDisplay:10.37 W/m2 FEW
00:15 -9.9 °F /  -23.3 °C -11.1 °F /  -23.9 °C 1014.8in /  34361.1hPa Calm     91% 0.0in /  0mm WeatherDisplay:10.37 W/m2 FEW
00:20 -9.9 °F /  -23.3 °C -11.1 °F /  -23.9 °C 1014.8in /  34361.1hPa Calm     91% 0.0in /  0mm WeatherDisplay:10.37 W/m2 FEW
00:25 -9.9 °F /  -23.3 °C -11.1 °F /  -23.9 °C 1015.1in /  34371.3hPa Calm     91% 0.0in /  0mm WeatherDisplay:10.37 W/m2 FEW
00:30 -9.8 °F /  -23.2 °C -11.0 °F /  -23.9 °C 1015.1in /  34371.3hPa Calm     91% 0.0in /  0mm WeatherDisplay:10.37 W/m2 FEW
00:35 -9.8 °F /  -23.2 °C -10.9 °F /  -23.8 °C 1015.1in /  34371.3hPa Calm     91% 0.0in /  0mm WeatherDisplay:10.37 W/m2 FEW
00:40 -9.8 °F /  -23.2 °C -10.9 °F /  -23.8 °C 1015.1in /  34371.3hPa Calm     91% 0.0in /  0mm WeatherDisplay:10.37 W/m2 FEW
00:45 -9.7 °F /  -23.2 °C -10.9 °F /  -23.8 °C 1015.1in /  34371.3hPa Calm     91% 0.0in /  0mm WeatherDisplay:10.37 W/m2 FEW
00:50 -9.8 °F /  -23.2 °C -10.9 °F /  -23.8 °C 1015.1in /  34371.3hPa Calm     91% 0.0in /  0mm WeatherDisplay:10.37 W/m2 FEW
00:55 -9.8 °F /  -23.2 °C -10.9 °F /  -23.8 °C 1015.1in /  34371.3hPa Calm     91% 0.0in /  0mm WeatherDisplay:10.37 W/m2 FEW
01:00 -9.8 °F /  -23.2 °C -11.0 °F /  -23.9 °C 1015.5in /  34384.8hPa Calm     91% 0.0in /  0mm WeatherDisplay:10.37 W/m2 FEW
01:05 -9.8 °F /  -23.2 °C -11.0 °F /  -23.9 °C 1015.5in /  34384.8hPa Calm     91% 0.0in /  0mm WeatherDisplay:10.37 W/m2 FEW
01:10 -9.9 °F /  -23.3 °C -11.1 °F /  -23.9 °C 1015.5in /  34384.8hPa Calm     91% 0.0in /  0mm WeatherDisplay:10.37 W/m2 FEW
01:15 -10.0 °F /  -23.3 °C -11.2 °F /  -24 °C 1015.5in /  34384.8hPa Calm     91% 0.0in /  0mm WeatherDisplay:10.37 W/m2 FEW
01:20 -10.1 °F /  -23.4 °C -11.4 °F /  -24.1 °C 1015.5in /  34384.8hPa Calm     90% 0.0in /  0mm WeatherDisplay:10.37 W/m2 FEW
01:25 -10.2 °F /  -23.4 °C -10.3 °F /  -23.5 °C 1015.5in /  34384.8hPa Calm     99% 0.0in /  0mm WeatherDisplay:10.37 W/m2 FEW
01:30 -10.3 °F /  -23.5 °C -11.7 °F /  -24.3 °C 1015.5in /  34384.8hPa Calm     90% 0.0in /  0mm WeatherDisplay:10.37 W/m2 FEW
01:35 -10.4 °F /  -23.6 °C -11.8 °F /  -24.3 °C 1015.5in /  34384.8hPa Calm     90% 0.0in /  0mm WeatherDisplay:10.37 W/m2 FEW
01:40 -10.6 °F /  -23.7 °C -11.9 °F /  -24.4 °C 1015.5in /  34384.8hPa Calm     90% 0.0in /  0mm WeatherDisplay:10.37 W/m2 FEW
01:45 -10.6 °F /  -23.7 °C -11.9 °F /  -24.4 °C 1015.8in /  34395hPa Calm     90% 0.0in /  0mm WeatherDisplay:10.37 W/m2 FEW
01:50 -10.6 °F /  -23.7 °C -11.9 °F /  -24.4 °C 1015.8in /  34395hPa Calm     90% 0.0in /  0mm WeatherDisplay:10.37 W/m2 FEW
01:55 -10.6 °F /  -23.7 °C -11.8 °F /  -24.3 °C 1015.8in /  34395hPa Calm     91% 0.0in /  0mm WeatherDisplay:10.37 W/m2 FEW
02:00 -10.6 °F /  -23.7 °C -11.8 °F /  -24.3 °C 1015.8in /  34395hPa Calm     91% 0.0in /  0mm WeatherDisplay:10.37 W/m2 FEW
02:05 -10.6 °F /  -23.7 °C -11.7 °F /  -24.3 °C 1015.8in /  34395hPa Calm     91% 0.0in /  0mm WeatherDisplay:10.37 W/m2 FEW
02:10 -10.5 °F /  -23.6 °C -11.7 °F /  -24.3 °C 1015.8in /  34395hPa Calm     91% 0.0in /  0mm WeatherDisplay:10.37 W/m2 FEW
02:15 -10.4 °F /  -23.6 °C -11.6 °F /  -24.2 °C 1016.1in /  34405.1hPa Calm     91% 0.0in /  0mm WeatherDisplay:10.37 W/m2 FEW
02:20 -10.3 °F /  -23.5 °C -11.5 °F /  -24.2 °C 1016.1in /  34405.1hPa Calm     91% 0.0in /  0mm WeatherDisplay:10.37 W/m2 FEW
02:25 -10.2 °F /  -23.4 °C -11.4 °F /  -24.1 °C 1016.1in /  34405.1hPa Calm     91% 0.0in /  0mm WeatherDisplay:10.37 W/m2 FEW
02:30 -10.2 °F /  -23.4 °C -11.3 °F /  -24.1 °C 1016.1in /  34405.1hPa Calm     91% 0.0in /  0mm WeatherDisplay:10.37 W/m2 FEW
02:35 -10.1 °F /  -23.4 °C -11.2 °F /  -24 °C 1016.1in /  34405.1hPa Calm     91% 0.0in /  0mm WeatherDisplay:10.37 W/m2 FEW
02:40 -9.9 °F /  -23.3 °C -11.0 °F /  -23.9 °C 1016.1in /  34405.1hPa Calm     92% 0.0in /  0mm WeatherDisplay:10.37 W/m2 FEW
02:45 -9.9 °F /  -23.3 °C -10.9 °F /  -23.8 °C 1016.5in /  34418.7hPa Calm     92% 0.0in /  0mm WeatherDisplay:10.37 W/m2 FEW
02:50 -9.8 °F /  -23.2 °C -10.9 °F /  -23.8 °C 1016.5in /  34418.7hPa Calm     92% 0.0in /  0mm WeatherDisplay:10.37 W/m2 FEW
02:55 -9.8 °F /  -23.2 °C -10.8 °F /  -23.8 °C 1016.5in /  34418.7hPa Calm     92% 0.0in /  0mm WeatherDisplay:10.37 W/m2 FEW
03:00 -9.7 °F /  -23.2 °C -10.8 °F /  -23.8 °C 1016.5in /  34418.7hPa Calm     92% 0.0in /  0mm WeatherDisplay:10.37 W/m2 FEW
03:05 -9.7 °F /  -23.2 °C -10.8 °F /  -23.8 °C 1016.5in /  34418.7hPa Calm     92% 0.0in /  0mm WeatherDisplay:10.37 W/m2 FEW
03:10 -9.7 °F /  -23.2 °C -10.7 °F /  -23.7 °C 1016.5in /  34418.7hPa Calm     92% 0.0in /  0mm WeatherDisplay:10.37 W/m2 FEW
03:15 -9.6 °F /  -23.1 °C -10.7 °F /  -23.7 °C 1016.5in /  34418.7hPa Calm     92% 0.0in /  0mm WeatherDisplay:10.37 W/m2 FEW
03:20 -9.6 °F /  -23.1 °C -10.6 °F /  -23.7 °C 1016.5in /  34418.7hPa Calm     92% 0.0in /  0mm WeatherDisplay:10.37 W/m2 FEW
03:30 -9.4 °F /  -23 °C -10.5 °F /  -23.6 °C 1016.5in /  34418.7hPa Calm     92% 0.0in /  0mm WeatherDisplay:10.37 W/m2 FEW
03:35 -9.4 °F /  -23 °C -10.5 °F /  -23.6 °C 1016.5in /  34418.7hPa Calm     92% 0.0in /  0mm WeatherDisplay:10.37 W/m2 FEW
03:40 -9.4 °F /  -23 °C -10.4 °F /  -23.6 °C 1016.8in /  34428.8hPa Calm     92% 0.0in /  0mm WeatherDisplay:10.37 W/m2 FEW
03:45 -9.3 °F /  -22.9 °C -10.4 °F /  -23.6 °C 1016.8in /  34428.8hPa Calm     92% 0.0in /  0mm WeatherDisplay:10.37 W/m2 FEW
03:50 -9.3 °F /  -22.9 °C -10.4 °F /  -23.6 °C 1016.8in /  34428.8hPa Calm     92% 0.0in /  0mm WeatherDisplay:10.37 W/m2 FEW
03:55 -9.3 °F /  -22.9 °C -10.3 °F /  -23.5 °C 1016.8in /  34428.8hPa Calm     92% 0.0in /  0mm WeatherDisplay:10.37 W/m2 FEW
04:00 -9.2 °F /  -22.9 °C -10.3 °F /  -23.5 °C 1016.8in /  34428.8hPa Calm     92% 0.0in /  0mm WeatherDisplay:10.37 W/m2 FEW
04:05 -9.2 °F /  -22.9 °C -10.2 °F /  -23.4 °C 1016.8in /  34428.8hPa Calm     92% 0.0in /  0mm WeatherDisplay:10.37 W/m2 FEW
04:15 -9.1 °F /  -22.8 °C -10.2 °F /  -23.4 °C 1017.2in /  34442.4hPa Calm     92% 0.0in /  0mm WeatherDisplay:10.37 W/m2 FEW
04:20 -9.1 °F /  -22.8 °C -10.2 °F /  -23.4 °C 1017.2in /  34442.4hPa Calm     92% 0.0in /  0mm WeatherDisplay:10.37 W/m2 FEW
04:25 -9.1 °F /  -22.8 °C -10.1 °F /  -23.4 °C 1017.2in /  34442.4hPa Calm     92% 0.0in /  0mm WeatherDisplay:10.37 W/m2 FEW
04:35 -9.0 °F /  -22.8 °C -10.1 °F /  -23.4 °C 1017.2in /  34442.4hPa Calm     92% 0.0in /  0mm WeatherDisplay:10.37 W/m2 FEW
04:45 -8.9 °F /  -22.7 °C -10.0 °F /  -23.3 °C 1017.2in /  34442.4hPa Calm     92% 0.0in /  0mm WeatherDisplay:10.37 W/m2 FEW
04:55 -9.1 °F /  -22.8 °C -10.3 °F /  -23.5 °C 1017.5in /  34452.6hPa Calm     91% 0.0in /  0mm WeatherDisplay:10.37 W/m2 FEW
05:00 -9.1 °F /  -22.8 °C -10.3 °F /  -23.5 °C 1017.5in /  34452.6hPa Calm   1.9mph /  3.1km/h 91% 0.0in /  0mm WeatherDisplay:10.37 W/m2 FEW
05:05 -9.2 °F /  -22.9 °C -10.4 °F /  -23.6 °C 1017.5in /  34452.6hPa Calm     91% 0.0in /  0mm WeatherDisplay:10.37 W/m2 FEW
05:10 -9.2 °F /  -22.9 °C -10.4 °F /  -23.6 °C 1017.5in /  34452.6hPa Calm     91% 0.0in /  0mm WeatherDisplay:10.37 W/m2 FEW
05:20 -9.3 °F /  -22.9 °C -10.5 °F /  -23.6 °C 1017.8in /  34462.7hPa Calm     91% 0.0in /  0mm WeatherDisplay:10.37 W/m2 FEW
05:25 -9.3 °F /  -22.9 °C -10.6 °F /  -23.7 °C 1017.8in /  34462.7hPa Calm     91% 0.0in /  0mm WeatherDisplay:10.37 W/m2 FEW
05:30 -9.3 °F /  -22.9 °C -10.6 °F /  -23.7 °C 1017.8in /  34462.7hPa Calm     91% 0.0in /  0mm WeatherDisplay:10.37 W/m2 FEW
05:35 -9.3 °F /  -22.9 °C -10.6 °F /  -23.7 °C 1017.8in /  34462.7hPa Calm     91% 0.0in /  0mm WeatherDisplay:10.37 W/m2 FEW
05:40 -9.4 °F /  -23 °C -10.6 °F /  -23.7 °C 1017.8in /  34462.7hPa Calm     91% 0.0in /  0mm WeatherDisplay:10.37 W/m2 FEW
05:45 -9.4 °F /  -23 °C -10.6 °F /  -23.7 °C 1017.8in /  34462.7hPa Calm     91% 0.0in /  0mm WeatherDisplay:10.37 W/m2 FEW
05:50 -9.4 °F /  -23 °C -10.7 °F /  -23.7 °C 1017.8in /  34462.7hPa Calm     91% 0.0in /  0mm WeatherDisplay:10.37 W/m2 FEW
05:55 -9.5 °F /  -23.1 °C -10.7 °F /  -23.7 °C 1018.2in /  34476.3hPa Calm   1.9mph /  3.1km/h 91% 0.0in /  0mm WeatherDisplay:10.37 W/m2 FEW
06:00 -9.5 °F /  -23.1 °C -10.7 °F /  -23.7 °C 1017.8in /  34462.7hPa Calm     91% 0.0in /  0mm WeatherDisplay:10.37 W/m2 FEW
06:10 -9.7 °F /  -23.2 °C -10.8 °F /  -23.8 °C 1018.2in /  34476.3hPa Calm     91% 0.0in /  0mm WeatherDisplay:10.37 W/m2 FEW
06:15 -9.8 °F /  -23.2 °C -11.1 °F /  -23.9 °C 1018.2in /  34476.3hPa Calm     90% 0.0in /  0mm WeatherDisplay:10.37 W/m2 FEW
06:20 -9.9 °F /  -23.3 °C -11.2 °F /  -24 °C 1018.2in /  34476.3hPa Calm     90% 0.0in /  0mm WeatherDisplay:10.37 W/m2 FEW
06:30 -10.3 °F /  -23.5 °C -11.6 °F /  -24.2 °C 1018.2in /  34476.3hPa Calm     90% 0.0in /  0mm WeatherDisplay:10.37 W/m2 FEW
06:35 -10.4 °F /  -23.6 °C -11.8 °F /  -24.3 °C 1018.2in /  34476.3hPa Calm     90% 0.0in /  0mm WeatherDisplay:10.37 W/m2 FEW
06:40 -10.6 °F /  -23.7 °C -11.9 °F /  -24.4 °C 1018.2in /  34476.3hPa Calm     90% 0.0in /  0mm WeatherDisplay:10.37 W/m2 FEW
06:45 -10.7 °F /  -23.7 °C -12.1 °F /  -24.5 °C 1018.2in /  34476.3hPa Calm     90% 0.0in /  0mm WeatherDisplay:10.37 W/m2 FEW
06:55 -10.8 °F /  -23.8 °C -12.1 °F /  -24.5 °C 1018.5in /  34486.4hPa NNE 2.1mph /  3.4km/h 4.8mph /  7.7km/h 90% 0.0in /  0mm WeatherDisplay:10.37 W/m2 FEW
07:00 -10.8 °F /  -23.8 °C -12.1 °F /  -24.5 °C 1018.5in /  34486.4hPa NNE 1.3mph /  2.1km/h 5.6mph /  9km/h 90% 0.0in /  0mm WeatherDisplay:10.37 W/m2 FEW
07:05 -10.8 °F /  -23.8 °C -12.2 °F /  -24.6 °C 1018.5in /  34486.4hPa Calm     90% 0.0in /  0mm WeatherDisplay:10.37 W/m2 FEW
07:10 -10.9 °F /  -23.8 °C -12.3 °F /  -24.6 °C 1018.5in /  34486.4hPa Calm     90% 0.0in /  0mm WeatherDisplay:10.37 W/m2 FEW
07:15 -11.1 °F /  -23.9 °C -12.4 °F /  -24.7 °C 1018.5in /  34486.4hPa Calm     90% 0.0in /  0mm WeatherDisplay:10.37 W/m2 FEW
07:25 -11.3 °F /  -24.1 °C -12.8 °F /  -24.9 °C 1018.5in /  34486.4hPa Calm     89% 0.0in /  0mm WeatherDisplay:10.37 W/m2 FEW
07:45 -11.7 °F /  -24.3 °C -13.0 °F /  -25 °C 1018.5in /  34486.4hPa Calm     90% 0.0in /  0mm WeatherDisplay:10.37 W/m2 FEW
07:50 -11.7 °F /  -24.3 °C -13.1 °F /  -25.1 °C 1018.5in /  34486.4hPa Calm     90% 0.0in /  0mm WeatherDisplay:10.37 W/m2 FEW
07:55 -11.7 °F /  -24.3 °C -13.0 °F /  -25 °C 1018.5in /  34486.4hPa Calm     90% 0.0in /  0mm WeatherDisplay:10.37 W/m2 FEW
08:02 -11.7 °F /  -24.3 °C -13.0 °F /  -25 °C 1018.5in /  34486.4hPa NNE 0.5mph /  0.8km/h 3.2mph /  5.1km/h 90% 0.0in /  0mm WeatherDisplay:10.37 W/m2 FEW
08:07 -11.6 °F /  -24.2 °C -12.9 °F /  -24.9 °C 1018.5in /  34486.4hPa NNE 0.5mph /  0.8km/h 3.2mph /  5.1km/h 90% 0.0in /  0mm WeatherDisplay:10.37 W/m2 FEW
08:12 -11.6 °F /  -24.2 °C -12.9 °F /  -24.9 °C 1018.8in /  34496.6hPa Calm     90% 0.0in /  0mm WeatherDisplay:10.37 W/m2 FEW
08:17 -11.6 °F /  -24.2 °C -12.9 °F /  -24.9 °C 1018.8in /  34496.6hPa Calm     90% 0.0in /  0mm WeatherDisplay:10.37 W/m2 FEW
08:22 -11.6 °F /  -24.2 °C -12.9 °F /  -24.9 °C 1019.2in /  34510.1hPa Calm     90% 0.0in /  0mm WeatherDisplay:10.37 W/m2 FEW
08:27 -11.6 °F /  -24.2 °C -12.9 °F /  -24.9 °C 1019.2in /  34510.1hPa Calm     90% 0.0in /  0mm WeatherDisplay:10.37 W/m2 FEW
08:32 -11.6 °F /  -24.2 °C -12.9 °F /  -24.9 °C 1019.2in /  34510.1hPa Calm     90% 0.0in /  0mm WeatherDisplay:10.37 W/m2 FEW
08:37 -11.6 °F /  -24.2 °C -12.9 °F /  -24.9 °C 1019.2in /  34510.1hPa Calm     90% 0.0in /  0mm WeatherDisplay:10.37 W/m2 FEW
08:42 -11.6 °F /  -24.2 °C -12.9 °F /  -24.9 °C 1019.2in /  34510.1hPa Calm     90% 0.0in /  0mm WeatherDisplay:10.37 W/m2 FEW
08:52 -11.4 °F /  -24.1 °C -12.8 °F /  -24.9 °C 1019.2in /  34510.1hPa Calm     90% 0.0in /  0mm WeatherDisplay:10.37 W/m2 FEW
08:57 -11.4 °F /  -24.1 °C -12.8 °F /  -24.9 °C 1019.2in /  34510.1hPa Calm     90% 0.0in /  0mm WeatherDisplay:10.37 W/m2 FEW
09:02 -11.4 °F /  -24.1 °C -12.7 °F /  -24.8 °C 1019.2in /  34510.1hPa Calm     90% 0.0in /  0mm WeatherDisplay:10.37 W/m2 FEW
09:07 -11.3 °F /  -24.1 °C -12.7 °F /  -24.8 °C 1019.2in /  34510.1hPa Calm     90% 0.0in /  0mm WeatherDisplay:10.37 W/m2 FEW
09:22 -11.3 °F /  -24.1 °C -12.6 °F /  -24.8 °C 1019.5in /  34520.3hPa Calm     90% 0.0in /  0mm WeatherDisplay:10.37 W/m2 FEW
09:32 -11.2 °F /  -24 °C -12.5 °F /  -24.7 °C 1019.5in /  34520.3hPa Calm     90% 0.0in /  0mm WeatherDisplay:10.37 W/m2 FEW
09:37 -11.2 °F /  -24 °C -12.5 °F /  -24.7 °C 1019.5in /  34520.3hPa Calm     90% 0.0in /  0mm WeatherDisplay:10.37 W/m2 FEW
09:42 -11.1 °F /  -23.9 °C -12.4 °F /  -24.7 °C 1019.5in /  34520.3hPa Calm     90% 0.0in /  0mm WeatherDisplay:10.37 W/m2 FEW
09:47 -11.1 °F /  -23.9 °C -12.4 °F /  -24.7 °C 1019.9in /  34533.8hPa Calm     90% 0.0in /  0mm WeatherDisplay:10.37 W/m2 FEW
09:52 -11.0 °F /  -23.9 °C -12.3 °F /  -24.6 °C 1019.9in /  34533.8hPa Calm     90% 0.0in /  0mm WeatherDisplay:10.37 W/m2 FEW
10:02 -10.9 °F /  -23.8 °C -12.2 °F /  -24.6 °C 1019.9in /  34533.8hPa Calm     90% 0.0in /  0mm WeatherDisplay:10.37 W/m2 FEW
10:07 -10.9 °F /  -23.8 °C -12.3 °F /  -24.6 °C 1019.9in /  34533.8hPa Calm     89% 0.0in /  0mm WeatherDisplay:10.37 W/m2 FEW
10:12 -10.8 °F /  -23.8 °C -12.3 °F /  -24.6 °C 1019.9in /  34533.8hPa Calm     89% 0.0in /  0mm WeatherDisplay:10.37 W/m2 FEW
10:17 -10.8 °F /  -23.8 °C -12.2 °F /  -24.6 °C 1019.9in /  34533.8hPa Calm     89% 0.0in /  0mm WeatherDisplay:10.37 W/m2 FEW
10:22 -10.8 °F /  -23.8 °C -12.2 °F /  -24.6 °C 1019.9in /  34533.8hPa Calm     89% 0.0in /  0mm WeatherDisplay:10.37 W/m2 FEW
10:27 -10.7 °F /  -23.7 °C -12.2 °F /  -24.6 °C 1019.9in /  34533.8hPa Calm     89% 0.0in /  0mm WeatherDisplay:10.37 W/m2 FEW
10:32 -10.7 °F /  -23.7 °C -12.1 °F /  -24.5 °C 1019.9in /  34533.8hPa Calm     89% 0.0in /  0mm WeatherDisplay:10.37 W/m2 FEW
10:37 -10.7 °F /  -23.7 °C -12.1 °F /  -24.5 °C 1020.2in /  34544hPa Calm     89% 0.0in /  0mm WeatherDisplay:10.37 W/m2 FEW
10:42 -10.6 °F /  -23.7 °C -12.2 °F /  -24.6 °C 1020.2in /  34544hPa Calm     88% 0.0in /  0mm WeatherDisplay:10.37 W/m2 FEW
10:47 -10.6 °F /  -23.7 °C -12.2 °F /  -24.6 °C 1020.2in /  34544hPa Calm     88% 0.0in /  0mm WeatherDisplay:10.37 W/m2 FEW
10:52 -10.4 °F /  -23.6 °C -11.9 °F /  -24.4 °C 1020.2in /  34544hPa Calm     89% 0.0in /  0mm WeatherDisplay:10.37 W/m2 FEW
10:57 -10.3 °F /  -23.5 °C -11.8 °F /  -24.3 °C 1020.2in /  34544hPa Calm     89% 0.0in /  0mm WeatherDisplay:10.37 W/m2 FEW
11:02 -10.3 °F /  -23.5 °C -11.9 °F /  -24.4 °C 1020.2in /  34544hPa Calm     88% 0.0in /  0mm WeatherDisplay:10.37 W/m2 FEW
11:07 -10.3 °F /  -23.5 °C -11.9 °F /  -24.4 °C 1020.2in /  34544hPa Calm     88% 0.0in /  0mm WeatherDisplay:10.37 W/m2 FEW
11:13 -10.2 °F /  -23.4 °C -11.8 °F /  -24.3 °C 1020.2in /  34544hPa Calm     88% 0.0in /  0mm WeatherDisplay:10.37 W/m2 FEW
11:18 -10.1 °F /  -23.4 °C -11.7 °F /  -24.3 °C 1020.5in /  34554.1hPa Calm     88% 0.0in /  0mm WeatherDisplay:10.37 W/m2 FEW
11:28 -9.9 °F /  -23.3 °C -11.3 °F /  -24.1 °C 1020.5in /  34554.1hPa Calm     89% 0.0in /  0mm WeatherDisplay:10.37 W/m2 FEW
11:33 -9.8 °F /  -23.2 °C -11.4 °F /  -24.1 °C 1020.5in /  34554.1hPa Calm     88% 0.0in /  0mm WeatherDisplay:10.37 W/m2 FEW
11:38 -9.7 °F /  -23.2 °C -11.3 °F /  -24.1 °C 1020.5in /  34554.1hPa Calm     88% 0.0in /  0mm WeatherDisplay:10.37 W/m2 FEW
11:43 -9.7 °F /  -23.2 °C -11.3 °F /  -24.1 °C 1020.5in /  34554.1hPa Calm     88% 0.0in /  0mm WeatherDisplay:10.37 W/m2 FEW
11:48 -9.7 °F /  -23.2 °C -11.3 °F /  -24.1 °C 1020.5in /  34554.1hPa Calm     88% 0.0in /  0mm WeatherDisplay:10.37 W/m2 FEW
11:53 -9.7 °F /  -23.2 °C -11.3 °F /  -24.1 °C 1020.9in /  34567.7hPa Calm     88% 0.0in /  0mm WeatherDisplay:10.37 W/m2 FEW
11:58 -9.7 °F /  -23.2 °C -11.3 °F /  -24.1 °C 1020.9in /  34567.7hPa Calm     88% 0.0in /  0mm WeatherDisplay:10.37 W/m2 FEW
12:03 -9.6 °F /  -23.1 °C -11.2 °F /  -24 °C 1020.9in /  34567.7hPa Calm     88% 0.0in /  0mm WeatherDisplay:10.37 W/m2 FEW
12:08 -9.6 °F /  -23.1 °C -11.2 °F /  -24 °C 1020.9in /  34567.7hPa Calm     88% 0.0in /  0mm WeatherDisplay:10.37 W/m2 FEW
12:18 -9.4 °F /  -23 °C -11.1 °F /  -23.9 °C 1020.9in /  34567.7hPa Calm     88% 0.0in /  0mm WeatherDisplay:10.37 W/m2 FEW
12:23 -9.3 °F /  -22.9 °C -10.9 °F /  -23.8 °C 1020.9in /  34567.7hPa Calm     88% 0.0in /  0mm WeatherDisplay:10.37 W/m2 FEW
12:28 -9.3 °F /  -22.9 °C -10.9 °F /  -23.8 °C 1020.9in /  34567.7hPa Calm     88% 0.0in /  0mm WeatherDisplay:10.37 W/m2 FEW
12:33 -9.2 °F /  -22.9 °C -10.8 °F /  -23.8 °C 1020.9in /  34567.7hPa Calm     88% 0.0in /  0mm WeatherDisplay:10.37 W/m2 FEW
12:38 -9.2 °F /  -22.9 °C -10.8 °F /  -23.8 °C 1020.9in /  34567.7hPa Calm     88% 0.0in /  0mm WeatherDisplay:10.37 W/m2 FEW
12:43 -9.1 °F /  -22.8 °C -10.7 °F /  -23.7 °C 1020.9in /  34567.7hPa Calm     88% 0.0in /  0mm WeatherDisplay:10.37 W/m2 FEW
12:48 -9.1 °F /  -22.8 °C -10.7 °F /  -23.7 °C 1020.9in /  34567.7hPa Calm     88% 0.0in /  0mm WeatherDisplay:10.37 W/m2 FEW
12:58 -8.9 °F /  -22.7 °C -10.7 °F /  -23.7 °C 1020.9in /  34567.7hPa Calm     87% 0.0in /  0mm WeatherDisplay:10.37 W/m2 FEW
13:03 -8.8 °F /  -22.7 °C -10.4 °F /  -23.6 °C 1020.9in /  34567.7hPa Calm     88% 0.0in /  0mm WeatherDisplay:10.37 W/m2 FEW
13:08 -8.8 °F /  -22.7 °C -10.4 °F /  -23.6 °C 1020.9in /  34567.7hPa Calm     88% 0.0in /  0mm WeatherDisplay:10.37 W/m2 FEW
13:18 -8.7 °F /  -22.6 °C -10.3 °F /  -23.5 °C 1020.9in /  34567.7hPa Calm     88% 0.0in /  0mm WeatherDisplay:10.37 W/m2 FEW
13:23 -8.7 °F /  -22.6 °C -10.3 °F /  -23.5 °C 1020.9in /  34567.7hPa Calm     88% 0.0in /  0mm WeatherDisplay:10.37 W/m2 FEW
13:28 -8.7 °F /  -22.6 °C -10.4 °F /  -23.6 °C 1020.9in /  34567.7hPa Calm     87% 0.0in /  0mm WeatherDisplay:10.37 W/m2 FEW
13:38 -8.6 °F /  -22.6 °C -10.2 °F /  -23.4 °C 1020.5in /  34554.1hPa Calm     88% 0.0in /  0mm WeatherDisplay:10.37 W/m2 FEW
13:43 -8.6 °F /  -22.6 °C -10.2 °F /  -23.4 °C 1020.9in /  34567.7hPa Calm     88% 0.0in /  0mm WeatherDisplay:10.37 W/m2 FEW
13:48 -8.5 °F /  -22.5 °C -10.1 °F /  -23.4 °C 1020.5in /  34554.1hPa Calm     88% 0.0in /  0mm WeatherDisplay:10.37 W/m2 FEW
13:53 -8.5 °F /  -22.5 °C -10.1 °F /  -23.4 °C 1020.5in /  34554.1hPa Calm     88% 0.0in /  0mm WeatherDisplay:10.37 W/m2 FEW
13:58 -8.4 °F /  -22.4 °C -10.1 °F /  -23.4 °C 1020.5in /  34554.1hPa Calm     88% 0.0in /  0mm WeatherDisplay:10.37 W/m2 FEW
14:03 -8.4 °F /  -22.4 °C -10.1 °F /  -23.4 °C 1020.5in /  34554.1hPa Calm     88% 0.0in /  0mm WeatherDisplay:10.37 W/m2 FEW
14:08 -8.4 °F /  -22.4 °C -10.1 °F /  -23.4 °C 1020.9in /  34567.7hPa Calm     88% 0.0in /  0mm WeatherDisplay:10.37 W/m2 FEW
14:13 -8.4 °F /  -22.4 °C -9.9 °F /  -23.3 °C 1020.5in /  34554.1hPa Calm     89% 0.0in /  0mm WeatherDisplay:10.37 W/m2 FEW
14:18 -8.3 °F /  -22.4 °C -9.8 °F /  -23.2 °C 1020.9in /  34567.7hPa Calm     89% 0.0in /  0mm WeatherDisplay:10.37 W/m2 FEW
14:28 -8.3 °F /  -22.4 °C -9.8 °F /  -23.2 °C 1020.9in /  34567.7hPa Calm     89% 0.0in /  0mm WeatherDisplay:10.37 W/m2 FEW
14:33 -8.2 °F /  -22.3 °C -9.7 °F /  -23.2 °C 1020.5in /  34554.1hPa Calm     89% 0.0in /  0mm WeatherDisplay:10.37 W/m2 FEW
14:38 -8.2 °F /  -22.3 °C -9.7 °F /  -23.2 °C 1020.9in /  34567.7hPa Calm     89% 0.0in /  0mm WeatherDisplay:10.37 W/m2 FEW
14:53 -8.2 °F /  -22.3 °C -9.7 °F /  -23.2 °C 1020.5in /  34554.1hPa Calm     89% 0.0in /  0mm WeatherDisplay:10.37 W/m2 FEW
14:58 -8.1 °F /  -22.3 °C -9.6 °F /  -23.1 °C 1020.5in /  34554.1hPa Calm     89% 0.0in /  0mm WeatherDisplay:10.37 W/m2 FEW
15:03 -8.1 °F /  -22.3 °C -9.6 °F /  -23.1 °C 1020.5in /  34554.1hPa Calm     89% 0.0in /  0mm WeatherDisplay:10.37 W/m2 FEW
15:08 -8.1 °F /  -22.3 °C -9.6 °F /  -23.1 °C 1020.5in /  34554.1hPa Calm     89% 0.0in /  0mm WeatherDisplay:10.37 W/m2 FEW
15:13 -8.0 °F /  -22.2 °C -9.5 °F /  -23.1 °C 1020.5in /  34554.1hPa Calm     89% 0.0in /  0mm WeatherDisplay:10.37 W/m2 FEW
15:18 -7.9 °F /  -22.2 °C -9.4 °F /  -23 °C 1020.5in /  34554.1hPa Calm     89% 0.0in /  0mm WeatherDisplay:10.37 W/m2 FEW
15:23 -7.9 °F /  -22.2 °C -9.4 °F /  -23 °C 1020.5in /  34554.1hPa Calm     89% 0.0in /  0mm WeatherDisplay:10.37 W/m2 FEW
15:33 -7.8 °F /  -22.1 °C -9.2 °F /  -22.9 °C 1020.5in /  34554.1hPa Calm     90% 0.0in /  0mm WeatherDisplay:10.37 W/m2 FEW
15:43 -7.8 °F /  -22.1 °C -9.1 °F /  -22.8 °C 1020.5in /  34554.1hPa Calm     90% 0.0in /  0mm WeatherDisplay:10.37 W/m2 FEW
15:48 -7.7 °F /  -22.1 °C -9.1 °F /  -22.8 °C 1020.5in /  34554.1hPa Calm     90% 0.0in /  0mm WeatherDisplay:10.37 W/m2 FEW
15:53 -7.7 °F /  -22.1 °C -9.0 °F /  -22.8 °C 1020.5in /  34554.1hPa Calm     90% 0.0in /  0mm WeatherDisplay:10.37 W/m2 FEW
15:56 -7.7 °F /  -22.1 °C -9.0 °F /  -22.8 °C 1020.5in /  34554.1hPa Calm     90% 0.0in /  0mm WeatherDisplay:10.37 W/m2 FEW
16:01 -7.6 °F /  -22 °C -8.9 °F /  -22.7 °C 1020.5in /  34554.1hPa Calm     90% 0.0in /  0mm WeatherDisplay:10.37 W/m2 FEW
16:06 -7.6 °F /  -22 °C -8.9 °F /  -22.7 °C 1020.5in /  34554.1hPa Calm     90% 0.0in /  0mm WeatherDisplay:10.37 W/m2 FEW
16:16 -7.5 °F /  -21.9 °C -8.8 °F /  -22.7 °C 1020.5in /  34554.1hPa Calm     90% 0.0in /  0mm WeatherDisplay:10.37 W/m2 FEW
16:26 -7.4 °F /  -21.9 °C -8.7 °F /  -22.6 °C 1020.5in /  34554.1hPa Calm     91% 0.0in /  0mm WeatherDisplay:10.37 W/m2 FEW
16:31 -7.4 °F /  -21.9 °C -8.6 °F /  -22.6 °C 1020.5in /  34554.1hPa Calm     91% 0.0in /  0mm WeatherDisplay:10.37 W/m2 FEW
16:36 -7.3 °F /  -21.8 °C -8.6 °F /  -22.6 °C 1020.5in /  34554.1hPa Calm     91% 0.0in /  0mm WeatherDisplay:10.37 W/m2 FEW
16:41 -7.3 °F /  -21.8 °C -8.6 °F /  -22.6 °C 1020.5in /  34554.1hPa Calm     91% 0.0in /  0mm WeatherDisplay:10.37 W/m2 FEW
16:46 -7.3 °F /  -21.8 °C -8.5 °F /  -22.5 °C 1020.5in /  34554.1hPa Calm     91% 0.0in /  0mm WeatherDisplay:10.37 W/m2 FEW
16:51 -7.2 °F /  -21.8 °C -8.4 °F /  -22.4 °C 1020.5in /  34554.1hPa Calm     91% 0.0in /  0mm WeatherDisplay:10.37 W/m2 FEW
16:56 -7.2 °F /  -21.8 °C -8.4 °F /  -22.4 °C 1020.5in /  34554.1hPa Calm     91% 0.0in /  0mm WeatherDisplay:10.37 W/m2 FEW
17:06 -7.1 °F /  -21.7 °C -8.3 °F /  -22.4 °C 1020.5in /  34554.1hPa Calm     91% 0.0in /  0mm WeatherDisplay:10.37 W/m2 FEW
17:11 -7.1 °F /  -21.7 °C -8.3 °F /  -22.4 °C 1020.5in /  34554.1hPa Calm     91% 0.0in /  0mm WeatherDisplay:10.37 W/m2 FEW
17:16 -7.1 °F /  -21.7 °C -8.3 °F /  -22.4 °C 1020.2in /  34544hPa Calm     91% 0.0in /  0mm WeatherDisplay:10.37 W/m2 FEW
17:21 -7.0 °F /  -21.7 °C -8.2 °F /  -22.3 °C 1020.2in /  34544hPa Calm     91% 0.0in /  0mm WeatherDisplay:10.37 W/m2 FEW
17:26 -6.9 °F /  -21.6 °C -8.0 °F /  -22.2 °C 1020.2in /  34544hPa Calm     92% 0.0in /  0mm WeatherDisplay:10.37 W/m2 FEW
17:31 -6.9 °F /  -21.6 °C -8.0 °F /  -22.2 °C 1020.2in /  34544hPa Calm     92% 0.0in /  0mm WeatherDisplay:10.37 W/m2 FEW
17:36 -7.0 °F /  -21.7 °C -8.1 °F /  -22.3 °C 1020.2in /  34544hPa Calm     92% 0.0in /  0mm WeatherDisplay:10.37 W/m2 FEW
17:46 -7.0 °F /  -21.7 °C -8.1 °F /  -22.3 °C 1020.2in /  34544hPa Calm     92% 0.0in /  0mm WeatherDisplay:10.37 W/m2 FEW
17:51 -7.1 °F /  -21.7 °C -8.1 °F /  -22.3 °C 1020.5in /  34554.1hPa Calm     92% 0.0in /  0mm WeatherDisplay:10.37 W/m2 FEW
17:56 -7.0 °F /  -21.7 °C -8.1 °F /  -22.3 °C 1020.2in /  34544hPa Calm     92% 0.0in /  0mm WeatherDisplay:10.37 W/m2 FEW
18:01 -7.0 °F /  -21.7 °C -8.1 °F /  -22.3 °C 1020.5in /  34554.1hPa Calm     92% 0.0in /  0mm WeatherDisplay:10.37 W/m2 FEW
18:11 -7.0 °F /  -21.7 °C -8.1 °F /  -22.3 °C 1020.2in /  34544hPa Calm     92% 0.0in /  0mm WeatherDisplay:10.37 W/m2 FEW
18:21 -7.1 °F /  -21.7 °C -8.1 °F /  -22.3 °C 1020.2in /  34544hPa Calm     92% 0.0in /  0mm WeatherDisplay:10.37 W/m2 FEW
18:26 -7.1 °F /  -21.7 °C -8.1 °F /  -22.3 °C 1020.2in /  34544hPa Calm     92% 0.0in /  0mm WeatherDisplay:10.37 W/m2 FEW
18:31 -7.1 °F /  -21.7 °C -8.2 °F /  -22.3 °C 1020.2in /  34544hPa Calm     92% 0.0in /  0mm WeatherDisplay:10.37 W/m2 FEW
18:36 -7.2 °F /  -21.8 °C -8.2 °F /  -22.3 °C 1020.2in /  34544hPa Calm     92% 0.0in /  0mm WeatherDisplay:10.37 W/m2 FEW
18:41 -7.2 °F /  -21.8 °C -8.3 °F /  -22.4 °C 1020.2in /  34544hPa Calm     92% 0.0in /  0mm WeatherDisplay:10.37 W/m2 FEW
18:46 -7.3 °F /  -21.8 °C -8.3 °F /  -22.4 °C 1020.2in /  34544hPa Calm     92% 0.0in /  0mm WeatherDisplay:10.37 W/m2 FEW
18:56 -7.3 °F /  -21.8 °C -8.3 °F /  -22.4 °C 1019.9in /  34533.8hPa Calm     92% 0.0in /  0mm WeatherDisplay:10.37 W/m2 FEW
19:01 -7.2 °F /  -21.8 °C -8.3 °F /  -22.4 °C 1019.9in /  34533.8hPa Calm     92% 0.0in /  0mm WeatherDisplay:10.37 W/m2 FEW
19:16 -7.1 °F /  -21.7 °C -8.1 °F /  -22.3 °C 1019.9in /  34533.8hPa Calm     92% 0.0in /  0mm WeatherDisplay:10.37 W/m2 FEW
19:21 -6.9 °F /  -21.6 °C -8.0 °F /  -22.2 °C 1019.5in /  34520.3hPa Calm     92% 0.0in /  0mm WeatherDisplay:10.37 W/m2 FEW
19:26 -6.9 °F /  -21.6 °C -7.9 °F /  -22.2 °C 1019.5in /  34520.3hPa Calm     92% 0.0in /  0mm WeatherDisplay:10.37 W/m2 FEW
19:31 -6.8 °F /  -21.6 °C -7.9 °F /  -22.2 °C 1019.5in /  34520.3hPa Calm     92% 0.0in /  0mm WeatherDisplay:10.37 W/m2 FEW
19:36 -6.8 °F /  -21.6 °C -7.8 °F /  -22.1 °C 1019.5in /  34520.3hPa Calm     92% 0.0in /  0mm WeatherDisplay:10.37 W/m2 FEW
19:41 -6.7 °F /  -21.5 °C -7.8 °F /  -22.1 °C 1019.5in /  34520.3hPa Calm     92% 0.0in /  0mm WeatherDisplay:10.37 W/m2 FEW
19:46 -6.7 °F /  -21.5 °C -7.6 °F /  -22 °C 1019.5in /  34520.3hPa Calm     93% 0.0in /  0mm WeatherDisplay:10.37 W/m2 FEW
19:51 -6.6 °F /  -21.4 °C -7.7 °F /  -22.1 °C 1019.2in /  34510.1hPa Calm     92% 0.0in /  0mm WeatherDisplay:10.37 W/m2 FEW
19:56 -6.5 °F /  -21.4 °C -7.6 °F /  -22 °C 1019.2in /  34510.1hPa Calm     92% 0.0in /  0mm WeatherDisplay:10.37 W/m2 FEW
20:01 -6.4 °F /  -21.3 °C -7.3 °F /  -21.8 °C 1019.2in /  34510.1hPa Calm     93% 0.0in /  0mm WeatherDisplay:10.37 W/m2 FEW
20:06 -6.3 °F /  -21.3 °C -7.3 °F /  -21.8 °C 1019.2in /  34510.1hPa Calm     93% 0.0in /  0mm WeatherDisplay:10.37 W/m2 FEW
20:11 -6.3 °F /  -21.3 °C -7.2 °F /  -21.8 °C 1019.2in /  34510.1hPa Calm     93% 0.0in /  0mm WeatherDisplay:10.37 W/m2 FEW
20:16 -6.2 °F /  -21.2 °C -7.1 °F /  -21.7 °C 1019.2in /  34510.1hPa Calm     93% 0.0in /  0mm WeatherDisplay:10.37 W/m2 FEW
20:21 -6.1 °F /  -21.2 °C -7.1 °F /  -21.7 °C 1018.8in /  34496.6hPa Calm     93% 0.0in /  0mm WeatherDisplay:10.37 W/m2 FEW
20:26 -6.1 °F /  -21.2 °C -7.0 °F /  -21.7 °C 1018.8in /  34496.6hPa Calm     93% 0.0in /  0mm WeatherDisplay:10.37 W/m2 FEW
20:31 -6.0 °F /  -21.1 °C -6.9 °F /  -21.6 °C 1018.8in /  34496.6hPa Calm     93% 0.0in /  0mm WeatherDisplay:10.37 W/m2 FEW
20:36 -5.9 °F /  -21.1 °C -6.8 °F /  -21.6 °C 1018.5in /  34486.4hPa Calm     93% 0.0in /  0mm WeatherDisplay:10.37 W/m2 FEW
20:41 -5.8 °F /  -21 °C -6.7 °F /  -21.5 °C 1018.5in /  34486.4hPa Calm     93% 0.0in /  0mm WeatherDisplay:10.37 W/m2 FEW
20:46 -5.7 °F /  -20.9 °C -6.7 °F /  -21.5 °C 1018.5in /  34486.4hPa Calm     93% 0.3in /  7.62mm WeatherDisplay:10.37 W/m2 RA
20:51 -5.6 °F /  -20.9 °C -6.6 °F /  -21.4 °C 1018.2in /  34476.3hPa Calm     93% 0.3in /  7.62mm WeatherDisplay:10.37 W/m2 RA
20:56 -5.6 °F /  -20.9 °C -6.5 °F /  -21.4 °C 1018.2in /  34476.3hPa Calm     93% 0.3in /  7.62mm WeatherDisplay:10.37 W/m2 FEW
21:01 -5.5 °F /  -20.8 °C -6.4 °F /  -21.3 °C 1018.2in /  34476.3hPa Calm     93% 0.3in /  7.62mm WeatherDisplay:10.37 W/m2 FEW
21:06 -5.4 °F /  -20.8 °C -6.4 °F /  -21.3 °C 1018.2in /  34476.3hPa Calm     93% 0.3in /  7.62mm WeatherDisplay:10.37 W/m2 FEW
21:11 -5.4 °F /  -20.8 °C -6.3 °F /  -21.3 °C 1018.2in /  34476.3hPa Calm     93% 0.3in /  7.62mm WeatherDisplay:10.37 W/m2 FEW
21:16 -5.3 °F /  -20.7 °C -6.2 °F /  -21.2 °C 1018.2in /  34476.3hPa Calm   1.6mph /  2.6km/h 93% 0.3in /  7.62mm WeatherDisplay:10.37 W/m2 FEW
21:21 -5.2 °F /  -20.7 °C -6.1 °F /  -21.2 °C 1018.2in /  34476.3hPa Calm     93% 0.3in /  7.62mm WeatherDisplay:10.37 W/m2 FEW
21:31 -4.9 °F /  -20.5 °C -5.8 °F /  -21 °C 1017.8in /  34462.7hPa Calm     93% 0.5in /  12.7mm WeatherDisplay:10.37 W/m2 RA
21:39 -4.7 °F /  -20.4 °C -5.6 °F /  -20.9 °C 1017.8in /  34462.7hPa Calm     93% 0.5in /  12.7mm WeatherDisplay:10.37 W/m2 FEW
21:44 -4.6 °F /  -20.3 °C -5.4 °F /  -20.8 °C 1017.8in /  34462.7hPa Calm   3.7mph /  6km/h 94% 0.5in /  12.7mm WeatherDisplay:10.37 W/m2 FEW
21:49 -4.3 °F /  -20.2 °C -5.3 °F /  -20.7 °C 1017.8in /  34462.7hPa Calm     93% 0.3in /  7.62mm WeatherDisplay:10.37 W/m2 FEW
21:59 -3.9 °F /  -19.9 °C -4.8 °F /  -20.4 °C 1017.8in /  34462.7hPa Calm   1.9mph /  3.1km/h 93% 0.3in /  7.62mm WeatherDisplay:10.37 W/m2 FEW
22:04 -3.8 °F /  -19.9 °C -4.7 °F /  -20.4 °C 1017.8in /  34462.7hPa Calm     94% 0.3in /  7.62mm WeatherDisplay:10.37 W/m2 FEW
22:14 -3.6 °F /  -19.8 °C -4.5 °F /  -20.3 °C 1017.8in /  34462.7hPa NNE 0.5mph /  0.8km/h 4.8mph /  7.7km/h 93% 0.5in /  12.7mm WeatherDisplay:10.37 W/m2 RA
22:19 -3.4 °F /  -19.7 °C -4.3 °F /  -20.2 °C 1017.8in /  34462.7hPa Calm     93% 0.5in /  12.7mm WeatherDisplay:10.37 W/m2 FEW
22:24 -3.2 °F /  -19.6 °C -4.0 °F /  -20 °C 1017.5in /  34452.6hPa NNE 0.3mph /  0.5km/h 3.7mph /  6km/h 94% 0.3in /  7.62mm WeatherDisplay:10.37 W/m2 FEW
22:29 -2.9 °F /  -19.4 °C -3.9 °F /  -19.9 °C 1017.5in /  34452.6hPa SSE 4.3mph /  6.9km/h 5.6mph /  9km/h 93% 0.3in /  7.62mm WeatherDisplay:10.37 W/m2 FEW
22:39 -2.2 °F /  -19 °C -3.2 °F /  -19.6 °C 1017.5in /  34452.6hPa SSE 2.9mph /  4.7km/h 9.3mph /  15km/h 93% 0.5in /  12.7mm WeatherDisplay:10.37 W/m2 RA
22:44 -1.9 °F /  -18.8 °C -2.9 °F /  -19.4 °C 1017.5in /  34452.6hPa SSE 2.9mph /  4.7km/h 14.8mph /  23.8km/h 93% 0.5in /  12.7mm WeatherDisplay:10.37 W/m2 FEW
22:49 -1.6 °F /  -18.7 °C -2.6 °F /  -19.2 °C 1017.5in /  34452.6hPa SSE 1.9mph /  3.1km/h 7.4mph /  11.9km/h 93% 0.5in /  12.7mm WeatherDisplay:10.37 W/m2 FEW
22:54 -1.4 °F /  -18.6 °C -2.4 °F /  -19.1 °C 1017.5in /  34452.6hPa Calm     93% 0.5in /  12.7mm WeatherDisplay:10.37 W/m2 FEW
22:59 -1.3 °F /  -18.5 °C -2.3 °F /  -19.1 °C 1017.5in /  34452.6hPa SSE 1.1mph /  1.8km/h 1.9mph /  3.1km/h 93% 0.5in /  12.7mm WeatherDisplay:10.37 W/m2 FEW
23:04 -1.2 °F /  -18.4 °C -2.2 °F /  -19 °C 1017.5in /  34452.6hPa WSW 0.8mph /  1.3km/h 5.6mph /  9km/h 93% 0.5in /  12.7mm WeatherDisplay:10.37 W/m2 FEW
23:09 -1.2 °F /  -18.4 °C -2.2 °F /  -19 °C 1017.5in /  34452.6hPa SSE 0.3mph /  0.5km/h 3.7mph /  6km/h 93% 0.3in /  7.62mm WeatherDisplay:10.37 W/m2 FEW
23:19 -1.2 °F /  -18.4 °C -2.2 °F /  -19 °C 1017.5in /  34452.6hPa South 1.1mph /  1.8km/h 7.4mph /  11.9km/h 93% 0.3in /  7.62mm WeatherDisplay:10.37 W/m2 FEW
23:24 -1.1 °F /  -18.4 °C -2.1 °F /  -18.9 °C 1017.5in /  34452.6hPa Calm   5.6mph /  9km/h 93% 0.3in /  7.62mm WeatherDisplay:10.37 W/m2 FEW
23:34 -1.1 °F /  -18.4 °C -2.1 °F /  -18.9 °C 1017.5in /  34452.6hPa Calm     93% 0.0in /  0mm WeatherDisplay:10.37 W/m2 FEW
23:39 -1.1 °F /  -18.4 °C -2.1 °F /  -18.9 °C 1017.5in /  34452.6hPa Calm   5.6mph /  9km/h 93% 0.0in /  0mm WeatherDisplay:10.37 W/m2 FEW
23:44 -1.1 °F /  -18.4 °C -2.1 °F /  -18.9 °C 1017.2in /  34442.4hPa SSE 4.0mph /  6.4km/h 16.7mph /  26.9km/h 93% 0.0in /  0mm WeatherDisplay:10.37 W/m2 FEW
23:49 -1.1 °F /  -18.4 °C -1.9 °F /  -18.8 °C 1017.2in /  34442.4hPa Calm   3.7mph /  6km/h 94% 0.0in /  0mm WeatherDisplay:10.37 W/m2 FEW
23:54 -1.1 °F /  -18.4 °C -2.1 °F /  -18.9 °C 1016.8in /  34428.8hPa South 4.2mph /  6.8km/h 13.0mph /  20.9km/h 93% 0.0in /  0mm WeatherDisplay:10.37 W/m2 FEW
23:59 -1.1 °F /  -18.4 °C -2.1 °F /  -18.9 °C 1016.8in /  34428.8hPa SSE 1.1mph /  1.8km/h 1.6mph /  2.6km/h 93% 0.3in /  7.62mm WeatherDisplay:10.37 W/m2 RA
Tuulensuunkaari, Veikkola, Suomi
Compliments of Weather Underground - 2.5 mb